首页
METAR-TAF:

METAR-TAF

机场 :

萨翁林纳机场

萨翁林纳, 芬兰

纬度: 61-57N, 经度: 028-57E, 海拔: 95米

当前天气观测

该预报发布于22分钟前的21:20 UTC
风速1节,风向西北
温度 -12°C
湿度 100%
气压 999 hPa
能见度10公里或以上

METAR: EFSA 262120Z AUTO 31001KT 9999 NCD M12/M12 Q0999

时间: 23:42 (21:42 UTC)


TAF: 丢失

超过4000个机场的气象观测和天气预报(METAR&TAF报告)。

可查询的气象台以黄色和红色小点在地图上表示。

将鼠标移到小点上方,可查看气象台名称。

然后点击查看天气观测和预报。

如需切换地图:点击带黑十字的绿色按钮放大地图;点击带横线的绿色按钮缩小地图;或者点击绿色箭头查看邻近地区的地图。


METAR-TAF: